WXM80 ListenWXM80 Stop

You find our weather info also at:

UK Metoffice

WeatherCloud

Weather Underground

Northeastern Weather Network

AWEKAS

Citizen Weather Observer Program (CWOP)

HAMweather, WeatherForYou, PWS Weather


Weather Underground History page Text

Daily Summary for October 26, 2016 Units:  English    Metric   Both
« Previous Day
Next Day »
Daily Weekly Monthly Yearly Custom
  High: Low: Average:
Temperature: 53.0 °F 41.6 °F 46.7 °F
Dew Point: 34.8 °F 28.2 °F 30.3 °F
Humidity: 64 % 42 % 53 %
Wind Speed: 8.2 mph 0.0 mph 3.6 mph
Wind Gust: 14.0 mph - -
Wind:- - South
Pressure: 30.43 in 30.31 in -
Precipitation: 0.00 in    
Historical Graphs
 
 
Tabular Data for October 26, 2016
Time Temperature Dew Point Pressure Wind Wind Speed Wind Gust Humidity Rainfall Rate (Hourly)
00:04 44.4 °F 29.2 °F 30.31 in North 4.6 mph 10.4 mph 55 % 0.00 in
00:09 44.5 °F 29.3 °F 30.31 in North 4.1 mph 4.6 mph 55 % 0.00 in
00:15 44.5 °F 29.8 °F 30.31 in North 3.8 mph 5.0 mph 56 % 0.00 in
00:20 44.5 °F 28.9 °F 30.31 in North 2.4 mph 11.5 mph 54 % 0.00 in
00:25 44.5 °F 29.8 °F 30.31 in North 1.4 mph 4.6 mph 56 % 0.00 in
00:30 44.6 °F 29.9 °F 30.31 in NE 2.5 mph 4.6 mph 56 % 0.00 in
00:35 44.6 °F 29.0 °F 30.31 in North 2.6 mph 5.8 mph 54 % 0.00 in
00:40 44.7 °F 30.0 °F 30.31 in NNW 4.4 mph 9.2 mph 56 % 0.00 in
00:45 44.8 °F 29.2 °F 30.32 in NW 2.2 mph 4.0 mph 54 % 0.00 in
00:50 44.8 °F 30.0 °F 30.32 in North 2.4 mph 5.8 mph 56 % 0.00 in
00:55 44.9 °F 30.1 °F 30.32 in WNW 2.3 mph 8.0 mph 56 % 0.00 in
01:00 44.9 °F 29.2 °F 30.32 in NNE 1.9 mph 6.0 mph 54 % 0.00 in
01:05 45.0 °F 29.8 °F 30.32 in NNW 3.0 mph 12.0 mph 55 % 0.00 in
01:10 45.0 °F 29.3 °F 30.32 in NNW 2.0 mph 6.0 mph 54 % 0.00 in
01:12 45.0 °F 30.2 °F 30.32 in North 2.3 mph 8.1 mph 56 % 0.00 in
01:17 45.0 °F 30.2 °F 30.32 in NNE 6.0 mph 10.4 mph 56 % 0.00 in
01:22 45.0 °F 31.1 °F 30.32 in NNE 3.2 mph 9.2 mph 58 % 0.00 in
01:27 45.0 °F 30.2 °F 30.32 in NW 5.1 mph 7.0 mph 56 % 0.00 in
01:32 45.0 °F 29.8 °F 30.32 in NW 3.1 mph 9.2 mph 55 % 0.00 in
01:33 45.0 °F 30.2 °F 30.32 in NNE 3.8 mph 7.0 mph 56 % 0.00 in
01:38 45.0 °F 30.2 °F 30.32 in NNW 6.4 mph 8.0 mph 56 % 0.00 in
01:42 44.9 °F 30.6 °F 30.32 in NW 0.5 mph 4.6 mph 57 % 0.00 in
01:48 44.9 °F 30.6 °F 30.32 in NNE 3.0 mph 6.9 mph 57 % 0.00 in
01:53 44.9 °F 30.1 °F 30.32 in NNW 4.1 mph 6.9 mph 56 % 0.00 in
01:58 44.9 °F 30.6 °F 30.32 in NNE 2.0 mph 4.6 mph 57 % 0.00 in
02:04 44.8 °F 30.5 °F 30.32 in North 5.2 mph 6.0 mph 57 % 0.00 in
02:09 44.7 °F 30.0 °F 30.32 in North 4.6 mph 12.0 mph 56 % 0.00 in
02:11 44.7 °F 30.0 °F 30.32 in NE 2.5 mph 5.8 mph 56 % 0.00 in
02:16 44.6 °F 29.9 °F 30.32 in NNE 2.2 mph 4.0 mph 56 % 0.00 in
02:21 44.6 °F 29.9 °F 30.32 in NW 3.0 mph 8.0 mph 56 % 0.00 in
02:26 44.4 °F 29.7 °F 30.32 in North 3.6 mph 6.9 mph 56 % 0.00 in
02:31 44.3 °F 29.6 °F 30.32 in North 2.4 mph 6.9 mph 56 % 0.00 in
02:36 44.1 °F 28.9 °F 30.32 in North 3.6 mph 8.1 mph 55 % 0.00 in
02:41 44.0 °F 30.2 °F 30.32 in NNE 6.3 mph 11.0 mph 58 % 0.00 in
02:46 44.0 °F 29.7 °F 30.32 in NW 2.1 mph 3.5 mph 57 % 0.00 in
02:51 44.0 °F 29.3 °F 30.32 in NNW 2.3 mph 5.8 mph 56 % 0.00 in
02:56 43.9 °F 30.5 °F 30.32 in NNE 3.8 mph 5.8 mph 59 % 0.00 in
03:01 43.8 °F 30.0 °F 30.32 in NNE 3.9 mph 4.6 mph 58 % 0.00 in
03:06 43.9 °F 30.5 °F 30.32 in NNE 1.9 mph 8.1 mph 59 % 0.00 in
03:12 43.9 °F 30.1 °F 30.32 in NNE 2.9 mph 5.8 mph 58 % 0.00 in
03:16 43.9 °F 30.5 °F 30.32 in North 1.1 mph 3.5 mph 59 % 0.00 in
03:17 43.9 °F 30.5 °F 30.32 in North 4.7 mph 8.1 mph 59 % 0.00 in
03:22 43.9 °F 30.9 °F 30.32 in NNW 2.1 mph 5.8 mph 60 % 0.00 in
03:27 43.9 °F 30.5 °F 30.32 in NNE 3.2 mph 8.0 mph 59 % 0.00 in
03:32 43.9 °F 30.1 °F 30.32 in WSW 2.5 mph 6.0 mph 58 % 0.00 in
03:37 43.9 °F 30.1 °F 30.32 in NE 5.4 mph 10.4 mph 58 % 0.00 in
03:43 43.8 °F 30.0 °F 30.32 in West 4.1 mph 5.8 mph 58 % 0.00 in
03:48 43.9 °F 30.1 °F 30.32 in North 1.2 mph 3.5 mph 58 % 0.00 in
03:51 43.9 °F 30.1 °F 30.32 in North 1.0 mph 11.5 mph 58 % 0.00 in
03:56 43.8 °F 30.8 °F 30.32 in NW 1.6 mph 4.0 mph 60 % 0.00 in
04:01 43.8 °F 30.4 °F 30.32 in North 1.2 mph 3.5 mph 59 % 0.00 in
04:02 43.8 °F 30.4 °F 30.32 in North 0.4 mph 3.5 mph 59 % 0.00 in
04:07 43.8 °F 30.8 °F 30.32 in NE 2.3 mph 5.0 mph 60 % 0.00 in
04:12 43.6 °F 31.0 °F 30.32 in NNW 2.2 mph 6.9 mph 61 % 0.00 in
04:17 43.4 °F 31.2 °F 30.32 in NW 4.0 mph 7.0 mph 62 % 0.00 in
04:26 43.3 °F 30.3 °F 30.32 in North 4.0 mph 8.1 mph 60 % 0.00 in
04:31 43.1 °F 30.6 °F 30.32 in NW 3.7 mph 8.1 mph 61 % 0.00 in
04:36 43.0 °F 31.3 °F 30.32 in NW 3.9 mph 6.9 mph 63 % 0.00 in
04:41 42.9 °F 31.6 °F 30.32 in WNW 1.2 mph 3.5 mph 64 % 0.00 in
04:46 42.9 °F 31.2 °F 30.32 in North 2.5 mph 8.1 mph 63 % 0.00 in
04:51 42.8 °F 31.1 °F 30.32 in NW 4.3 mph 10.4 mph 63 % 0.00 in
04:56 42.7 °F 30.6 °F 30.32 in WNW 4.4 mph 8.1 mph 62 % 0.00 in
05:01 42.6 °F 30.9 °F 30.33 in NE 4.3 mph 8.1 mph 63 % 0.00 in
05:06 42.5 °F 30.0 °F 30.33 in WNW 4.7 mph 11.5 mph 61 % 0.00 in
05:11 42.5 °F 30.4 °F 30.33 in NW 4.7 mph 8.1 mph 62 % 0.00 in
05:12 42.5 °F 30.4 °F 30.33 in NW 4.2 mph 8.1 mph 62 % 0.00 in
05:17 42.4 °F 29.9 °F 30.33 in NNW 3.4 mph 8.0 mph 61 % 0.00 in
05:18 42.4 °F 30.3 °F 30.33 in NNW 4.4 mph 8.1 mph 62 % 0.00 in
05:24 42.4 °F 29.9 °F 30.33 in NW 7.6 mph 11.5 mph 61 % 0.00 in
05:34 42.5 °F 30.4 °F 30.33 in North 5.6 mph 9.2 mph 62 % 0.00 in
05:39 42.5 °F 30.0 °F 30.34 in North 5.4 mph 11.5 mph 61 % 0.00 in
05:43 42.4 °F 29.9 °F 30.34 in NNE 4.1 mph 9.2 mph 61 % 0.00 in
05:48 42.5 °F 30.4 °F 30.34 in North 3.8 mph 10.4 mph 62 % 0.00 in
05:54 42.4 °F 30.3 °F 30.34 in North 4.8 mph 8.1 mph 62 % 0.00 in
05:57 42.4 °F 30.3 °F 30.34 in NW 4.3 mph 7.0 mph 62 % 0.00 in
06:02 42.4 °F 29.9 °F 30.35 in NNE 7.2 mph 11.5 mph 61 % 0.00 in
06:07 42.4 °F 29.9 °F 30.35 in NW 4.2 mph 9.2 mph 61 % 0.00 in
06:12 42.4 °F 30.3 °F 30.35 in North 2.4 mph 4.0 mph 62 % 0.00 in
06:17 42.3 °F 30.6 °F 30.35 in NNE 4.4 mph 10.4 mph 63 % 0.00 in
06:22 42.2 °F 29.3 °F 30.35 in North 4.3 mph 6.9 mph 60 % 0.00 in
06:27 42.2 °F 29.7 °F 30.35 in North 4.4 mph 8.0 mph 61 % 0.00 in
06:31 42.1 °F 29.6 °F 30.35 in NNW 3.5 mph 8.1 mph 61 % 0.00 in
06:33 42.1 °F 30.0 °F 30.36 in NNE 1.9 mph 6.9 mph 62 % 0.00 in
06:38 42.1 °F 29.6 °F 30.36 in NNW 3.6 mph 6.9 mph 61 % 0.00 in
06:41 42.1 °F 30.0 °F 30.36 in NNE 6.7 mph 12.0 mph 62 % 0.00 in
06:47 42.0 °F 30.3 °F 30.36 in North 4.1 mph 6.0 mph 63 % 0.00 in
06:52 42.0 °F 29.9 °F 30.36 in North 1.2 mph 6.9 mph 62 % 0.00 in
06:57 41.9 °F 29.8 °F 30.36 in NNE 3.4 mph 6.9 mph 62 % 0.00 in
07:02 41.9 °F 29.8 °F 30.36 in NE 2.8 mph 4.6 mph 62 % 0.00 in
07:04 41.9 °F 29.4 °F 30.36 in WSW 4.0 mph 7.0 mph 61 % 0.00 in
07:09 41.8 °F 29.7 °F 30.36 in NW 2.5 mph 4.0 mph 62 % 0.00 in
07:12 41.8 °F 29.7 °F 30.36 in NNE 4.1 mph 8.1 mph 62 % 0.00 in
07:13 41.8 °F 29.3 °F 30.36 in NNW 4.2 mph 8.1 mph 61 % 0.00 in
07:19 41.7 °F 28.8 °F 30.36 in NNW 3.1 mph 7.0 mph 60 % 0.00 in
07:24 41.6 °F 28.3 °F 30.36 in North 3.0 mph 6.9 mph 59 % 0.00 in
07:29 41.6 °F 28.7 °F 30.36 in NNW 1.2 mph 4.6 mph 60 % 0.00 in
07:34 41.6 °F 29.1 °F 30.36 in NW 3.1 mph 4.6 mph 61 % 0.00 in
07:36 41.6 °F 28.3 °F 30.36 in North 1.8 mph 8.1 mph 59 % 0.00 in
07:37 41.6 °F 28.7 °F 30.36 in NW 4.3 mph 6.0 mph 60 % 0.00 in
07:42 41.6 °F 29.5 °F 30.36 in NW 1.7 mph 4.6 mph 62 % 0.00 in
07:47 41.7 °F 29.2 °F 30.36 in WNW 3.2 mph 8.1 mph 61 % 0.00 in
07:52 41.8 °F 29.3 °F 30.36 in NNE 1.9 mph 9.2 mph 61 % 0.00 in
07:57 41.8 °F 29.7 °F 30.37 in NNW 1.8 mph 8.1 mph 62 % 0.00 in
07:58 41.8 °F 29.7 °F 30.37 in WNW 2.8 mph 5.8 mph 62 % 0.00 in
08:03 41.9 °F 29.8 °F 30.37 in West 1.3 mph 4.6 mph 62 % 0.00 in
08:08 42.0 °F 29.5 °F 30.37 in NNW 2.2 mph 8.1 mph 61 % 0.00 in
08:13 42.1 °F 29.6 °F 30.37 in North 1.6 mph 5.8 mph 61 % 0.00 in
08:18 42.2 °F 30.5 °F 30.38 in North 2.7 mph 5.8 mph 63 % 0.00 in
08:23 42.2 °F 30.5 °F 30.38 in WNW 3.0 mph 3.5 mph 63 % 0.00 in
08:24 42.2 °F 30.5 °F 30.38 in WNW 3.2 mph 5.8 mph 63 % 0.00 in
08:29 42.3 °F 30.6 °F 30.38 in WNW 3.0 mph 3.0 mph 63 % 0.00 in
08:31 42.3 °F 30.6 °F 30.38 in NNE 2.8 mph 8.1 mph 63 % 0.00 in
08:33 42.3 °F 30.2 °F 30.38 in NW 3.1 mph 5.8 mph 62 % 0.00 in
08:34 42.3 °F 30.2 °F 30.38 in WNW 1.6 mph 6.9 mph 62 % 0.00 in
08:44 42.4 °F 30.7 °F 30.38 in NNW 2.8 mph 8.1 mph 63 % 0.00 in
08:47 42.4 °F 31.1 °F 30.38 in WNW 2.1 mph 4.6 mph 64 % 0.00 in
08:52 42.5 °F 30.8 °F 30.38 in SSW 1.9 mph 4.6 mph 63 % 0.00 in
08:57 42.6 °F 30.5 °F 30.38 in NNW 2.9 mph 3.5 mph 62 % 0.00 in
08:59 42.6 °F 30.5 °F 30.38 in NNW 2.2 mph 5.8 mph 62 % 0.00 in
09:02 42.7 °F 30.6 °F 30.39 in WNW 2.2 mph 5.0 mph 62 % 0.00 in
09:07 42.8 °F 29.9 °F 30.39 in WNW 2.6 mph 10.4 mph 60 % 0.00 in
09:12 43.0 °F 29.6 °F 30.39 in WNW 2.8 mph 10.4 mph 59 % 0.00 in
09:13 43.0 °F 29.6 °F 30.39 in WNW 2.8 mph 10.4 mph 59 % 0.00 in
09:18 43.2 °F 30.2 °F 30.39 in West 4.2 mph 9.2 mph 60 % 0.00 in
09:23 43.5 °F 30.5 °F 30.39 in NW 2.9 mph 6.9 mph 60 % 0.00 in
09:26 43.6 °F 30.6 °F 30.39 in NW 2.5 mph 5.8 mph 60 % 0.00 in
09:31 44.0 °F 31.4 °F 30.39 in NW 4.5 mph 10.4 mph 61 % 0.00 in
09:33 44.2 °F 30.8 °F 30.39 in WNW 4.2 mph 6.9 mph 59 % 0.00 in
09:39 44.8 °F 31.8 °F 30.39 in NNW 4.0 mph 9.2 mph 60 % 0.00 in
09:42 45.1 °F 31.6 °F 30.39 in North 2.8 mph 8.1 mph 59 % 0.00 in
09:44 45.4 °F 31.9 °F 30.39 in North 2.5 mph 4.6 mph 59 % 0.00 in
09:49 46.0 °F 32.0 °F 30.39 in NNE 0.4 mph 5.8 mph 58 % 0.00 in
09:54 46.4 °F 32.0 °F 30.39 in North 2.9 mph 5.8 mph 57 % 0.00 in
09:56 46.5 °F 31.6 °F 30.39 in North 2.2 mph 5.8 mph 56 % 0.00 in
10:01 46.9 °F 32.0 °F 30.38 in North 2.6 mph 6.0 mph 56 % 0.00 in
10:03 46.9 °F 32.0 °F 30.38 in NNW 2.1 mph 5.8 mph 56 % 0.00 in
10:04 47.0 °F 32.1 °F 30.38 in North 6.9 mph 11.0 mph 56 % 0.00 in
10:09 47.0 °F 31.2 °F 30.38 in WNW 4.6 mph 6.9 mph 54 % 0.00 in
10:12 47.0 °F 30.7 °F 30.38 in NNW 5.7 mph 6.9 mph 53 % 0.00 in
10:17 47.3 °F 31.0 °F 30.38 in North 3.9 mph 8.1 mph 53 % 0.00 in
10:22 47.6 °F 30.8 °F 30.38 in NNE 2.5 mph 6.9 mph 52 % 0.00 in
10:24 47.6 °F 31.8 °F 30.38 in NW 5.7 mph 7.0 mph 54 % 0.00 in
10:27 47.8 °F 31.9 °F 30.38 in North 2.0 mph 4.6 mph 54 % 0.00 in
10:37 48.6 °F 31.8 °F 30.38 in NW 5.4 mph 9.2 mph 52 % 0.00 in
10:44 48.9 °F 32.5 °F 30.38 in North 3.5 mph 8.1 mph 53 % 0.00 in
10:49 49.2 °F 32.8 °F 30.38 in WNW 3.9 mph 9.2 mph 53 % 0.00 in
10:52 49.3 °F 32.9 °F 30.38 in WNW 2.2 mph 5.0 mph 53 % 0.00 in
10:57 49.6 °F 33.6 °F 30.38 in NW 2.1 mph 6.9 mph 54 % 0.00 in
10:58 49.8 °F 33.8 °F 30.37 in NW 5.9 mph 10.4 mph 54 % 0.00 in
11:03 50.0 °F 32.6 °F 30.38 in NW 3.3 mph 4.6 mph 51 % 0.00 in
11:08 50.3 °F 34.3 °F 30.38 in West 1.9 mph 4.0 mph 54 % 0.00 in
11:09 50.4 °F 33.4 °F 30.38 in WNW 4.0 mph 6.0 mph 52 % 0.00 in
11:12 50.5 °F 32.0 °F 30.37 in NNW 3.9 mph 11.5 mph 49 % 0.00 in
11:13 50.5 °F 33.0 °F 30.37 in NNW 4.5 mph 9.2 mph 51 % 0.00 in
11:16 50.6 °F 32.1 °F 30.38 in NW 4.4 mph 11.5 mph 49 % 0.00 in
11:21 50.9 °F 32.4 °F 30.37 in NNE 2.3 mph 4.6 mph 49 % 0.00 in
11:22 51.0 °F 32.5 °F 30.37 in WNW 4.7 mph 8.1 mph 49 % 0.00 in
11:24 51.0 °F 34.0 °F 30.37 in WNW 2.8 mph 6.9 mph 52 % 0.00 in
11:26 51.2 °F 33.2 °F 30.37 in North 3.6 mph 5.8 mph 50 % 0.00 in
11:32 51.4 °F 32.3 °F 30.37 in North 4.2 mph 9.2 mph 48 % 0.00 in
11:37 51.7 °F 33.1 °F 30.37 in WNW 1.7 mph 5.8 mph 49 % 0.00 in
11:38 51.8 °F 33.7 °F 30.37 in WNW 2.2 mph 6.9 mph 50 % 0.00 in
11:39 51.9 °F 34.8 °F 30.37 in WNW 1.0 mph 6.9 mph 52 % 0.00 in
11:43 52.4 °F 33.8 °F 30.37 in NNW 4.6 mph 10.4 mph 49 % 0.00 in
11:48 52.7 °F 32.5 °F 30.37 in North 4.4 mph 10.4 mph 46 % 0.00 in
11:53 52.8 °F 32.0 °F 30.37 in WNW 6.0 mph 8.1 mph 45 % 0.00 in
11:54 52.8 °F 32.6 °F 30.37 in NW 4.1 mph 11.5 mph 46 % 0.00 in
11:55 52.8 °F 32.6 °F 30.37 in WNW 2.8 mph 6.0 mph 46 % 0.00 in
11:56 52.8 °F 32.0 °F 30.37 in WNW 2.6 mph 5.8 mph 45 % 0.00 in
12:01 52.6 °F 31.3 °F 30.37 in NW 4.9 mph 8.1 mph 44 % 0.00 in
12:04 52.4 °F 31.1 °F 30.37 in WNW 5.8 mph 8.0 mph 44 % 0.00 in
12:05 52.4 °F 31.1 °F 30.37 in NW 5.3 mph 8.1 mph 44 % 0.00 in
12:07 52.3 °F 33.7 °F 30.37 in NNW 0.8 mph 3.5 mph 49 % 0.00 in
12:12 52.6 °F 34.0 °F 30.36 in NE 4.7 mph 9.0 mph 49 % 0.00 in
12:15 52.7 °F 34.1 °F 30.36 in North 4.3 mph 10.4 mph 49 % 0.00 in
12:20 52.7 °F 33.0 °F 30.36 in NNE 2.6 mph 6.9 mph 47 % 0.00 in
12:26 52.6 °F 32.4 °F 30.36 in NNW 4.3 mph 11.5 mph 46 % 0.00 in
12:30 52.3 °F 32.1 °F 30.36 in WNW 2.8 mph 6.0 mph 46 % 0.00 in
12:35 52.0 °F 32.9 °F 30.35 in NNE 0.3 mph 4.6 mph 48 % 0.00 in
12:40 51.8 °F 31.7 °F 30.35 in WNW 4.1 mph 6.9 mph 46 % 0.00 in
12:43 51.7 °F 32.1 °F 30.35 in NE 3.3 mph 6.0 mph 47 % 0.00 in
12:44 51.6 °F 32.0 °F 30.35 in NNE 3.9 mph 8.1 mph 47 % 0.00 in
12:45 51.5 °F 30.8 °F 30.35 in North 6.8 mph 11.5 mph 45 % 0.00 in
12:53 51.4 °F 30.7 °F 30.35 in NNE 6.1 mph 13.8 mph 45 % 0.00 in
12:57 51.6 °F 31.5 °F 30.35 in NNW 4.2 mph 9.2 mph 46 % 0.00 in
12:59 51.8 °F 32.2 °F 30.35 in NW 1.7 mph 5.8 mph 47 % 0.00 in
13:05 51.9 °F 31.2 °F 30.35 in NNW 5.4 mph 11.5 mph 45 % 0.00 in
13:09 51.9 °F 31.7 °F 30.35 in West 2.3 mph 4.6 mph 46 % 0.00 in
13:12 52.0 °F 31.8 °F 30.35 in NNW 4.4 mph 6.9 mph 46 % 0.00 in
13:16 51.9 °F 30.6 °F 30.34 in NNE 6.4 mph 12.7 mph 44 % 0.00 in
13:21 51.7 °F 30.5 °F 30.34 in NNW 5.8 mph 11.5 mph 44 % 0.00 in
13:23 51.7 °F 30.5 °F 30.35 in NW 4.2 mph 11.5 mph 44 % 0.00 in
13:24 51.6 °F 30.4 °F 30.34 in NW 5.6 mph 10.4 mph 44 % 0.00 in
13:29 51.5 °F 31.4 °F 30.34 in WNW 4.3 mph 6.9 mph 46 % 0.00 in
13:32 51.5 °F 31.4 °F 30.35 in North 5.1 mph 10.0 mph 46 % 0.00 in
13:37 51.6 °F 32.0 °F 30.34 in NW 5.6 mph 11.5 mph 47 % 0.00 in
13:41 51.7 °F 31.0 °F 30.34 in North 3.0 mph 9.2 mph 45 % 0.00 in
13:44 51.9 °F 31.7 °F 30.34 in NNE 3.0 mph 9.2 mph 46 % 0.00 in
13:49 52.1 °F 30.8 °F 30.34 in NNW 4.2 mph 10.4 mph 44 % 0.00 in
13:52 52.3 °F 32.1 °F 30.34 in North 5.6 mph 8.1 mph 46 % 0.00 in
13:54 52.3 °F 30.4 °F 30.34 in NE 4.9 mph 9.2 mph 43 % 0.00 in
13:56 52.4 °F 31.1 °F 30.34 in North 4.3 mph 10.4 mph 44 % 0.00 in
14:01 52.6 °F 31.8 °F 30.34 in NW 5.2 mph 13.8 mph 45 % 0.00 in
14:02 52.7 °F 31.9 °F 30.34 in WNW 4.5 mph 9.0 mph 45 % 0.00 in
14:07 52.8 °F 31.5 °F 30.34 in NE 3.4 mph 6.0 mph 44 % 0.00 in
14:08 52.9 °F 31.0 °F 30.34 in NNE 5.2 mph 7.0 mph 43 % 0.00 in
14:11 53.0 °F 30.5 °F 30.34 in North 3.1 mph 8.1 mph 42 % 0.00 in
14:12 53.0 °F 30.5 °F 30.34 in NNW 4.0 mph 6.9 mph 42 % 0.00 in
14:17 53.0 °F 30.5 °F 30.34 in NW 4.4 mph 5.8 mph 42 % 0.00 in
14:22 52.9 °F 30.4 °F 30.33 in NNW 3.8 mph 6.0 mph 42 % 0.00 in
14:24 52.8 °F 31.5 °F 30.33 in North 2.8 mph 5.8 mph 44 % 0.00 in
14:28 52.7 °F 30.2 °F 30.34 in NW 6.2 mph 9.2 mph 42 % 0.00 in
14:33 52.6 °F 30.1 °F 30.34 in WNW 3.0 mph 5.0 mph 42 % 0.00 in
14:35 52.6 °F 31.3 °F 30.34 in North 1.5 mph 5.0 mph 44 % 0.00 in
14:40 52.6 °F 31.8 °F 30.34 in North 4.6 mph 6.0 mph 45 % 0.00 in
14:42 52.7 °F 31.4 °F 30.34 in ENE 3.6 mph 8.1 mph 44 % 0.00 in
14:45 52.6 °F 30.1 °F 30.34 in NNE 3.6 mph 10.0 mph 42 % 0.00 in
14:49 52.5 °F 30.0 °F 30.34 in NW 3.9 mph 5.8 mph 42 % 0.00 in
14:50 52.5 °F 31.2 °F 30.34 in North 4.5 mph 8.0 mph 44 % 0.00 in
14:53 52.3 °F 29.9 °F 30.34 in NNE 1.2 mph 8.1 mph 42 % 0.00 in
14:58 52.2 °F 30.9 °F 30.34 in NW 2.7 mph 5.8 mph 44 % 0.00 in
14:59 52.3 °F 30.4 °F 30.34 in NW 5.2 mph 8.1 mph 43 % 0.00 in
15:00 52.3 °F 30.4 °F 30.34 in NW 1.6 mph 6.0 mph 43 % 0.00 in
15:04 52.2 °F 30.9 °F 30.34 in North 2.8 mph 4.0 mph 44 % 0.00 in
15:05 52.2 °F 30.4 °F 30.34 in NW 3.7 mph 5.8 mph 43 % 0.00 in
15:10 52.1 °F 29.7 °F 30.34 in NW 4.6 mph 9.2 mph 42 % 0.00 in
15:15 51.9 °F 29.5 °F 30.34 in North 1.0 mph 2.3 mph 42 % 0.00 in
15:18 51.8 °F 30.0 °F 30.34 in NNE 4.7 mph 6.9 mph 43 % 0.00 in
15:23 51.6 °F 29.8 °F 30.34 in North 3.0 mph 5.8 mph 43 % 0.00 in
15:25 51.5 °F 29.7 °F 30.34 in WSW 1.8 mph 5.0 mph 43 % 0.00 in
15:26 51.5 °F 29.7 °F 30.34 in WNW 1.7 mph 7.0 mph 43 % 0.00 in
15:31 51.3 °F 29.0 °F 30.34 in NW 3.9 mph 8.0 mph 42 % 0.00 in
15:33 51.2 °F 30.0 °F 30.34 in WNW 3.3 mph 8.1 mph 44 % 0.00 in
15:37 51.0 °F 29.3 °F 30.35 in North 2.3 mph 5.8 mph 43 % 0.00 in
15:43 50.6 °F 29.5 °F 30.35 in NNE 1.9 mph 3.5 mph 44 % 0.00 in
15:44 50.5 °F 30.5 °F 30.35 in NNE 0.4 mph 3.5 mph 46 % 0.00 in
15:46 50.5 °F 29.9 °F 30.35 in Calm     45 % 0.00 in
15:50 50.3 °F 29.2 °F 30.35 in NNW 2.1 mph 3.5 mph 44 % 0.00 in
15:52 50.2 °F 30.2 °F 30.35 in North 2.2 mph 4.6 mph 46 % 0.00 in
15:56 49.9 °F 28.8 °F 30.35 in North 5.4 mph 8.1 mph 44 % 0.00 in
16:01 49.8 °F 29.3 °F 30.35 in WNW 4.1 mph 9.2 mph 45 % 0.00 in
16:04 49.7 °F 29.2 °F 30.35 in WNW 2.7 mph 4.6 mph 45 % 0.00 in
16:06 49.7 °F 29.2 °F 30.35 in WNW 1.9 mph 2.3 mph 45 % 0.00 in
16:09 49.7 °F 29.7 °F 30.35 in NW 0.7 mph 2.3 mph 46 % 0.00 in
16:11 49.6 °F 29.6 °F 30.35 in NW 2.0 mph 5.0 mph 46 % 0.00 in
16:12 49.6 °F 29.6 °F 30.35 in NW 2.2 mph 3.5 mph 46 % 0.00 in
16:14 49.6 °F 29.1 °F 30.35 in North 2.6 mph 5.8 mph 45 % 0.00 in
16:16 49.6 °F 29.1 °F 30.35 in NW 1.8 mph 5.8 mph 45 % 0.00 in
16:17 49.6 °F 29.1 °F 30.35 in NNW 1.5 mph 5.8 mph 45 % 0.00 in
16:22 49.6 °F 29.1 °F 30.35 in NNW 2.0 mph 5.0 mph 45 % 0.00 in
16:27 49.7 °F 29.7 °F 30.35 in NNW 0.5 mph 3.5 mph 46 % 0.00 in
16:32 49.7 °F 29.2 °F 30.35 in NNW 4.1 mph 6.9 mph 45 % 0.00 in
16:37 49.8 °F 28.7 °F 30.35 in NNE 0.8 mph 3.5 mph 44 % 0.00 in
16:42 49.7 °F 29.2 °F 30.35 in NW 1.0 mph 5.8 mph 45 % 0.00 in
16:47 49.6 °F 29.6 °F 30.35 in NNE 0.7 mph 3.5 mph 46 % 0.00 in
16:52 49.5 °F 28.5 °F 30.35 in NNW 0.2 mph 1.2 mph 44 % 0.00 in
16:58 49.3 °F 28.8 °F 30.35 in North 1.4 mph 3.5 mph 45 % 0.00 in
17:03 49.2 °F 28.7 °F 30.35 in NE 2.6 mph 4.6 mph 45 % 0.00 in
17:13 48.8 °F 28.4 °F 30.35 in North 0.7 mph 3.5 mph 45 % 0.00 in
17:18 48.7 °F 29.4 °F 30.35 in NE 3.0 mph 6.9 mph 47 % 0.00 in
17:23 48.5 °F 29.7 °F 30.35 in North 3.2 mph 4.0 mph 48 % 0.00 in
17:28 48.4 °F 29.1 °F 30.35 in North 3.5 mph 9.2 mph 47 % 0.00 in
17:33 48.3 °F 29.0 °F 30.34 in NNE 3.4 mph 8.1 mph 47 % 0.00 in
17:38 48.2 °F 28.9 °F 30.35 in NE 5.7 mph 10.4 mph 47 % 0.00 in
17:44 48.1 °F 29.8 °F 30.34 in NNE 3.3 mph 8.1 mph 49 % 0.00 in
17:49 47.9 °F 29.6 °F 30.35 in NNE 3.5 mph 10.4 mph 49 % 0.00 in
17:54 47.8 °F 29.0 °F 30.35 in NNW 5.7 mph 9.2 mph 48 % 0.00 in
17:59 47.7 °F 29.5 °F 30.35 in North 4.1 mph 8.1 mph 49 % 0.00 in
18:04 47.6 °F 28.9 °F 30.35 in NNE 3.0 mph 6.9 mph 48 % 0.00 in
18:09 47.4 °F 29.2 °F 30.35 in North 4.1 mph 9.2 mph 49 % 0.00 in
18:14 47.3 °F 29.1 °F 30.36 in NNE 3.0 mph 4.6 mph 49 % 0.00 in
18:19 47.2 °F 28.5 °F 30.36 in NNE 3.3 mph 6.0 mph 48 % 0.00 in
18:24 47.0 °F 28.8 °F 30.36 in North 6.5 mph 8.0 mph 49 % 0.00 in
18:29 47.0 °F 29.8 °F 30.36 in North 6.6 mph 10.4 mph 51 % 0.00 in
18:34 46.9 °F 29.2 °F 30.36 in North 6.4 mph 9.2 mph 50 % 0.00 in
18:40 46.9 °F 29.7 °F 30.36 in North 4.7 mph 11.5 mph 51 % 0.00 in
18:45 46.8 °F 29.1 °F 30.37 in NE 4.5 mph 8.1 mph 50 % 0.00 in
18:50 46.8 °F 29.6 °F 30.37 in NNE 5.6 mph 11.5 mph 51 % 0.00 in
18:55 46.6 °F 28.9 °F 30.37 in NNE 5.7 mph 10.4 mph 50 % 0.00 in
19:00 46.6 °F 28.9 °F 30.37 in ENE 4.5 mph 8.1 mph 50 % 0.00 in
19:05 46.5 °F 28.8 °F 30.37 in NNE 4.6 mph 14.0 mph 50 % 0.00 in
19:10 46.4 °F 28.8 °F 30.37 in NNE 7.0 mph 10.4 mph 50 % 0.00 in
19:15 46.3 °F 28.7 °F 30.37 in NE 8.2 mph 10.0 mph 50 % 0.00 in
19:20 46.3 °F 29.1 °F 30.38 in NE 3.0 mph 12.0 mph 51 % 0.00 in
19:25 46.2 °F 29.5 °F 30.38 in NE 2.0 mph 9.0 mph 52 % 0.00 in
19:30 46.0 °F 28.4 °F 30.38 in North 4.8 mph 8.1 mph 50 % 0.00 in
19:35 46.0 °F 28.4 °F 30.38 in North 3.0 mph 10.0 mph 50 % 0.00 in
19:40 45.9 °F 28.8 °F 30.39 in NNE 3.0 mph 8.0 mph 51 % 0.00 in
19:45 45.8 °F 28.2 °F 30.39 in NNE 5.0 mph 12.0 mph 50 % 0.00 in
19:50 45.7 °F 28.6 °F 30.39 in NNE 5.0 mph 7.0 mph 51 % 0.00 in
19:55 45.6 °F 29.0 °F 30.39 in NNE 3.0 mph 8.0 mph 52 % 0.00 in
20:01 45.5 °F 29.3 °F 30.40 in NNE 6.3 mph 9.0 mph 53 % 0.00 in
20:06 45.4 °F 28.3 °F 30.40 in North 3.2 mph 8.0 mph 51 % 0.00 in
20:11 45.4 °F 29.3 °F 30.40 in NNE 2.7 mph 5.0 mph 53 % 0.00 in
20:16 45.3 °F 29.2 °F 30.40 in NNE 4.3 mph 8.1 mph 53 % 0.00 in
20:21 45.2 °F 29.1 °F 30.39 in NNE 4.7 mph 8.1 mph 53 % 0.00 in
20:26 45.2 °F 29.1 °F 30.39 in North 7.3 mph 11.5 mph 53 % 0.00 in
20:31 45.1 °F 28.5 °F 30.39 in NNE 2.5 mph 8.1 mph 52 % 0.00 in
20:36 45.0 °F 28.4 °F 30.40 in NNE 4.6 mph 9.2 mph 52 % 0.00 in
20:41 45.0 °F 28.9 °F 30.40 in NNE 5.6 mph 5.8 mph 53 % 0.00 in
20:46 44.9 °F 29.2 °F 30.40 in North 3.4 mph 5.8 mph 54 % 0.00 in
20:52 44.8 °F 29.6 °F 30.40 in NNE 4.9 mph 9.2 mph 55 % 0.00 in
20:57 44.7 °F 29.1 °F 30.41 in NNE 6.6 mph 11.5 mph 54 % 0.00 in
21:02 44.6 °F 29.4 °F 30.41 in NNE 3.4 mph 6.0 mph 55 % 0.00 in
21:07 44.6 °F 29.0 °F 30.41 in NNE 4.7 mph 9.2 mph 54 % 0.00 in
21:12 44.5 °F 29.3 °F 30.41 in NNE 3.7 mph 6.9 mph 55 % 0.00 in
21:17 44.5 °F 28.4 °F 30.41 in North 5.7 mph 8.1 mph 53 % 0.00 in
21:22 44.4 °F 29.2 °F 30.41 in North 5.7 mph 10.4 mph 55 % 0.00 in
21:27 44.4 °F 28.8 °F 30.41 in ENE 4.8 mph 7.0 mph 54 % 0.00 in
21:32 44.3 °F 28.7 °F 30.41 in NE 3.9 mph 9.2 mph 54 % 0.00 in
21:37 44.3 °F 29.1 °F 30.41 in North 4.2 mph 6.9 mph 55 % 0.00 in
21:43 44.3 °F 30.0 °F 30.42 in NNE 3.8 mph 11.5 mph 57 % 0.00 in
21:48 44.3 °F 30.0 °F 30.42 in NNE 3.7 mph 8.0 mph 57 % 0.00 in
21:53 44.2 °F 28.6 °F 30.42 in NNE 2.7 mph 6.9 mph 54 % 0.00 in
21:58 44.2 °F 29.0 °F 30.42 in North 5.7 mph 11.0 mph 55 % 0.00 in
22:03 44.1 °F 29.4 °F 30.42 in NNE 4.8 mph 9.2 mph 56 % 0.00 in
22:08 44.1 °F 28.9 °F 30.43 in NNE 2.8 mph 5.0 mph 55 % 0.00 in
22:13 44.0 °F 29.3 °F 30.43 in NNE 5.4 mph 8.1 mph 56 % 0.00 in
22:18 43.9 °F 29.2 °F 30.43 in NNE 6.4 mph 10.0 mph 56 % 0.00 in
22:23 43.9 °F 29.2 °F 30.43 in NE 4.1 mph 9.2 mph 56 % 0.00 in
22:28 43.8 °F 29.1 °F 30.43 in ENE 4.8 mph 10.4 mph 56 % 0.00 in
22:33 43.8 °F 29.5 °F 30.43 in NNE 2.7 mph 6.9 mph 57 % 0.00 in
22:39 43.8 °F 30.0 °F 30.43 in NNE 4.4 mph 5.8 mph 58 % 0.00 in
22:44 43.8 °F 30.4 °F 30.42 in East 4.9 mph 8.1 mph 59 % 0.00 in
22:49 43.8 °F 29.5 °F 30.42 in NE 1.7 mph 3.5 mph 57 % 0.00 in
22:54 43.7 °F 29.9 °F 30.43 in NNE 4.9 mph 6.9 mph 58 % 0.00 in
22:59 43.6 °F 28.9 °F 30.42 in NNE 6.0 mph 8.1 mph 56 % 0.00 in
23:04 43.6 °F 28.9 °F 30.42 in NNE 5.1 mph 8.1 mph 56 % 0.00 in
23:09 43.5 °F 29.3 °F 30.42 in NNE 5.9 mph 8.1 mph 57 % 0.00 in
23:14 43.5 °F 29.3 °F 30.43 in NNE 5.8 mph 9.2 mph 57 % 0.00 in
23:19 43.4 °F 28.7 °F 30.43 in NNE 5.7 mph 9.2 mph 56 % 0.00 in
23:29 43.4 °F 28.7 °F 30.43 in NNE 3.9 mph 8.1 mph 56 % 0.00 in
23:34 43.4 °F 28.7 °F 30.43 in NE 3.1 mph 8.1 mph 56 % 0.00 in
23:40 43.4 °F 29.2 °F 30.43 in NE 4.3 mph 7.0 mph 57 % 0.00 in
23:45 43.4 °F 28.7 °F 30.43 in ENE 5.2 mph 9.2 mph 56 % 0.00 in
23:50 43.4 °F 28.7 °F 30.43 in ENE 3.0 mph 6.9 mph 56 % 0.00 in
23:55 43.4 °F 28.7 °F 30.42 in NE 2.1 mph 3.5 mph 56 % 0.00 in
Crab Meadow Weather
Compliments of Weather Underground - 3.25 mb

Script developed by  Jim McMurry - jmcmurry@mwt.net Adapted for the template by  Wim van der Kuil - Leuven-Template.eu

Weather Terms: Tornado Warning - Strong rotation in a thunderstorm is indicated by Doppler radar or a tornado is sighted by skywarn spotters. These warnings are issued on a county by county basis by the local Weather Forecast office in Upton.